sensor_id;sensor_type;location;lat;lon;timestamp;P1;durP1;ratioP1;P2;durP2;ratioP2
21420;SDS011;10871;50.144;8.428;2022-09-17T00:00:20;8.48;;;2.40;;
21420;SDS011;10871;50.144;8.428;2022-09-17T00:02:50;10.77;;;1.52;;
21420;SDS011;10871;50.144;8.428;2022-09-17T00:05:17;5.07;;;1.30;;
21420;SDS011;10871;50.144;8.428;2022-09-17T00:07:43;4.68;;;1.67;;
21420;SDS011;10871;50.144;8.428;2022-09-17T00:10:10;9.20;;;1.55;;
21420;SDS011;10871;50.144;8.428;2022-09-17T00:12:36;7.63;;;1.83;;
21420;SDS011;10871;50.144;8.428;2022-09-17T00:15:02;5.35;;;1.50;;
21420;SDS011;10871;50.144;8.428;2022-09-17T00:17:29;6.65;;;1.90;;
21420;SDS011;10871;50.144;8.428;2022-09-17T00:19:55;6.97;;;1.50;;
21420;SDS011;10871;50.144;8.428;2022-09-17T00:22:21;6.88;;;1.75;;
21420;SDS011;10871;50.144;8.428;2022-09-17T00:24:48;3.92;;;1.45;;
21420;SDS011;10871;50.144;8.428;2022-09-17T00:27:14;8.52;;;1.50;;
21420;SDS011;10871;50.144;8.428;2022-09-17T00:29:40;6.63;;;1.80;;
21420;SDS011;10871;50.144;8.428;2022-09-17T00:32:06;4.80;;;1.60;;
21420;SDS011;10871;50.144;8.428;2022-09-17T00:34:33;7.30;;;2.20;;
21420;SDS011;10871;50.144;8.428;2022-09-17T00:36:59;7.40;;;1.88;;
21420;SDS011;10871;50.144;8.428;2022-09-17T00:39:25;5.65;;;1.60;;
21420;SDS011;10871;50.144;8.428;2022-09-17T00:41:52;5.57;;;1.88;;
21420;SDS011;10871;50.144;8.428;2022-09-17T00:47:03;7.40;;;1.90;;
21420;SDS011;10871;50.144;8.428;2022-09-17T00:49:30;6.45;;;2.05;;
21420;SDS011;10871;50.144;8.428;2022-09-17T00:52:03;7.18;;;1.60;;
21420;SDS011;10871;50.144;8.428;2022-09-17T00:54:31;7.13;;;1.80;;
21420;SDS011;10871;50.144;8.428;2022-09-17T00:56:58;5.88;;;1.85;;
21420;SDS011;10871;50.144;8.428;2022-09-17T00:59:24;8.45;;;2.30;;
21420;SDS011;10871;50.144;8.428;2022-09-17T01:01:51;6.85;;;1.83;;
21420;SDS011;10871;50.144;8.428;2022-09-17T01:04:18;6.93;;;1.92;;
21420;SDS011;10871;50.144;8.428;2022-09-17T01:09:38;7.30;;;1.70;;
21420;SDS011;10871;50.144;8.428;2022-09-17T01:12:10;8.38;;;1.90;;
21420;SDS011;10871;50.144;8.428;2022-09-17T01:22:22;9.05;;;2.05;;
21420;SDS011;10871;50.144;8.428;2022-09-17T01:25:27;8.05;;;1.80;;
21420;SDS011;10871;50.144;8.428;2022-09-17T01:33:07;9.07;;;2.30;;
21420;SDS011;10871;50.144;8.428;2022-09-17T01:35:50;7.82;;;2.03;;
21420;SDS011;10871;50.144;8.428;2022-09-17T01:38:25;6.53;;;2.03;;
21420;SDS011;10871;50.144;8.428;2022-09-17T01:41:00;7.22;;;2.35;;
21420;SDS011;10871;50.144;8.428;2022-09-17T01:43:31;6.43;;;2.15;;
21420;SDS011;10871;50.144;8.428;2022-09-17T01:46:01;8.32;;;2.33;;
21420;SDS011;10871;50.144;8.428;2022-09-17T01:48:30;8.48;;;2.42;;
21420;SDS011;10871;50.144;8.428;2022-09-17T01:51:05;7.88;;;2.15;;
21420;SDS011;10871;50.144;8.428;2022-09-17T01:55:59;9.38;;;2.28;;
21420;SDS011;10871;50.144;8.428;2022-09-17T01:58:28;9.18;;;2.22;;
21420;SDS011;10871;50.144;8.428;2022-09-17T02:00:57;7.15;;;2.30;;
21420;SDS011;10871;50.144;8.428;2022-09-17T02:03:26;7.82;;;2.22;;
21420;SDS011;10871;50.144;8.428;2022-09-17T02:08:35;11.60;;;2.72;;
21420;SDS011;10871;50.144;8.428;2022-09-17T02:14:03;8.57;;;2.70;;
21420;SDS011;10871;50.144;8.428;2022-09-17T02:16:31;12.88;;;2.95;;
21420;SDS011;10871;50.144;8.428;2022-09-17T02:19:01;7.82;;;2.88;;
21420;SDS011;10871;50.144;8.428;2022-09-17T02:21:43;12.52;;;2.75;;
21420;SDS011;10871;50.144;8.428;2022-09-17T02:24:11;10.02;;;2.75;;
21420;SDS011;10871;50.144;8.428;2022-09-17T02:26:38;7.93;;;2.85;;
21420;SDS011;10871;50.144;8.428;2022-09-17T02:29:07;9.43;;;2.35;;
21420;SDS011;10871;50.144;8.428;2022-09-17T02:31:34;9.27;;;2.60;;
21420;SDS011;10871;50.144;8.428;2022-09-17T02:34:00;10.43;;;2.67;;
21420;SDS011;10871;50.144;8.428;2022-09-17T02:36:28;8.50;;;2.33;;
21420;SDS011;10871;50.144;8.428;2022-09-17T02:38:58;8.48;;;2.55;;
21420;SDS011;10871;50.144;8.428;2022-09-17T02:41:43;7.43;;;2.70;;
21420;SDS011;10871;50.144;8.428;2022-09-17T02:44:18;9.93;;;2.55;;
21420;SDS011;10871;50.144;8.428;2022-09-17T02:46:52;10.63;;;2.63;;
21420;SDS011;10871;50.144;8.428;2022-09-17T02:49:48;7.10;;;2.50;;
21420;SDS011;10871;50.144;8.428;2022-09-17T02:54:56;9.80;;;2.35;;
21420;SDS011;10871;50.144;8.428;2022-09-17T02:57:27;9.32;;;3.00;;
21420;SDS011;10871;50.144;8.428;2022-09-17T03:02:35;5.13;;;2.38;;
21420;SDS011;10871;50.144;8.428;2022-09-17T03:05:04;13.90;;;2.72;;
21420;SDS011;10871;50.144;8.428;2022-09-17T03:07:31;6.88;;;2.20;;
21420;SDS011;10871;50.144;8.428;2022-09-17T03:09:58;12.52;;;2.72;;
21420;SDS011;10871;50.144;8.428;2022-09-17T03:12:25;8.90;;;2.80;;
21420;SDS011;10871;50.144;8.428;2022-09-17T03:14:51;8.38;;;3.30;;
21420;SDS011;10871;50.144;8.428;2022-09-17T03:17:18;8.20;;;2.42;;
21420;SDS011;10871;50.144;8.428;2022-09-17T03:19:44;6.65;;;2.50;;
21420;SDS011;10871;50.144;8.428;2022-09-17T03:22:10;8.60;;;2.30;;
21420;SDS011;10871;50.144;8.428;2022-09-17T03:24:37;10.85;;;2.80;;
21420;SDS011;10871;50.144;8.428;2022-09-17T03:27:05;8.90;;;2.40;;
21420;SDS011;10871;50.144;8.428;2022-09-17T03:29:32;9.05;;;2.50;;
21420;SDS011;10871;50.144;8.428;2022-09-17T03:31:58;9.75;;;2.70;;
21420;SDS011;10871;50.144;8.428;2022-09-17T03:34:26;8.57;;;2.83;;
21420;SDS011;10871;50.144;8.428;2022-09-17T03:36:52;10.52;;;2.90;;
21420;SDS011;10871;50.144;8.428;2022-09-17T03:39:18;5.95;;;2.45;;
21420;SDS011;10871;50.144;8.428;2022-09-17T03:41:44;7.35;;;2.72;;
21420;SDS011;10871;50.144;8.428;2022-09-17T03:44:11;6.78;;;2.72;;
21420;SDS011;10871;50.144;8.428;2022-09-17T03:46:37;8.13;;;2.53;;
21420;SDS011;10871;50.144;8.428;2022-09-17T03:49:03;5.80;;;2.40;;
21420;SDS011;10871;50.144;8.428;2022-09-17T03:51:30;10.38;;;2.90;;
21420;SDS011;10871;50.144;8.428;2022-09-17T03:53:57;8.70;;;2.67;;
21420;SDS011;10871;50.144;8.428;2022-09-17T03:56:23;9.73;;;2.92;;
21420;SDS011;10871;50.144;8.428;2022-09-17T03:58:55;7.88;;;3.30;;
21420;SDS011;10871;50.144;8.428;2022-09-17T04:01:21;11.07;;;3.15;;
21420;SDS011;10871;50.144;8.428;2022-09-17T04:03:48;6.97;;;3.03;;
21420;SDS011;10871;50.144;8.428;2022-09-17T04:06:14;6.70;;;2.78;;
21420;SDS011;10871;50.144;8.428;2022-09-17T04:08:40;10.95;;;2.85;;
21420;SDS011;10871;50.144;8.428;2022-09-17T04:11:08;11.77;;;3.58;;
21420;SDS011;10871;50.144;8.428;2022-09-17T04:13:35;7.28;;;3.22;;
21420;SDS011;10871;50.144;8.428;2022-09-17T04:16:01;8.98;;;2.72;;
21420;SDS011;10871;50.144;8.428;2022-09-17T04:18:28;7.07;;;2.50;;
21420;SDS011;10871;50.144;8.428;2022-09-17T04:20:54;9.35;;;2.50;;
21420;SDS011;10871;50.144;8.428;2022-09-17T04:23:21;5.43;;;2.60;;
21420;SDS011;10871;50.144;8.428;2022-09-17T04:25:47;6.40;;;2.45;;
21420;SDS011;10871;50.144;8.428;2022-09-17T04:28:14;7.38;;;2.70;;
21420;SDS011;10871;50.144;8.428;2022-09-17T04:30:40;7.40;;;2.40;;
21420;SDS011;10871;50.144;8.428;2022-09-17T04:33:08;5.90;;;2.53;;
21420;SDS011;10871;50.144;8.428;2022-09-17T04:35:34;8.73;;;2.42;;
21420;SDS011;10871;50.144;8.428;2022-09-17T04:38:01;3.55;;;2.50;;
21420;SDS011;10871;50.144;8.428;2022-09-17T04:40:27;5.10;;;2.60;;
21420;SDS011;10871;50.144;8.428;2022-09-17T04:42:55;7.72;;;2.22;;
21420;SDS011;10871;50.144;8.428;2022-09-17T04:45:21;5.35;;;2.00;;
21420;SDS011;10871;50.144;8.428;2022-09-17T04:47:48;7.30;;;2.53;;
21420;SDS011;10871;50.144;8.428;2022-09-17T04:50:19;6.65;;;2.40;;
21420;SDS011;10871;50.144;8.428;2022-09-17T04:52:45;5.82;;;2.50;;
21420;SDS011;10871;50.144;8.428;2022-09-17T04:55:12;6.90;;;2.55;;
21420;SDS011;10871;50.144;8.428;2022-09-17T04:57:38;6.05;;;2.03;;
21420;SDS011;10871;50.144;8.428;2022-09-17T05:00:05;7.25;;;2.78;;
21420;SDS011;10871;50.144;8.428;2022-09-17T05:02:34;8.75;;;2.70;;
21420;SDS011;10871;50.144;8.428;2022-09-17T05:05:00;7.43;;;2.75;;
21420;SDS011;10871;50.144;8.428;2022-09-17T05:07:27;8.38;;;3.03;;
21420;SDS011;10871;50.144;8.428;2022-09-17T05:09:53;6.50;;;2.88;;
21420;SDS011;10871;50.144;8.428;2022-09-17T05:12:19;8.68;;;3.30;;
21420;SDS011;10871;50.144;8.428;2022-09-17T05:14:46;7.78;;;3.22;;
21420;SDS011;10871;50.144;8.428;2022-09-17T05:17:12;11.15;;;3.55;;
21420;SDS011;10871;50.144;8.428;2022-09-17T05:19:38;14.57;;;4.78;;
21420;SDS011;10871;50.144;8.428;2022-09-17T05:22:05;11.50;;;4.32;;
21420;SDS011;10871;50.144;8.428;2022-09-17T05:24:31;10.15;;;4.40;;
21420;SDS011;10871;50.144;8.428;2022-09-17T05:26:58;12.65;;;4.65;;
21420;SDS011;10871;50.144;8.428;2022-09-17T05:29:25;9.82;;;5.00;;
21420;SDS011;10871;50.144;8.428;2022-09-17T05:31:51;13.05;;;4.80;;
21420;SDS011;10871;50.144;8.428;2022-09-17T05:34:17;12.07;;;4.65;;
21420;SDS011;10871;50.144;8.428;2022-09-17T05:36:43;11.48;;;5.53;;
21420;SDS011;10871;50.144;8.428;2022-09-17T05:39:10;14.27;;;6.38;;
21420;SDS011;10871;50.144;8.428;2022-09-17T05:41:36;12.52;;;5.82;;
21420;SDS011;10871;50.144;8.428;2022-09-17T05:44:02;18.08;;;6.25;;
21420;SDS011;10871;50.144;8.428;2022-09-17T05:46:29;15.50;;;6.03;;
21420;SDS011;10871;50.144;8.428;2022-09-17T05:48:55;14.65;;;6.00;;
21420;SDS011;10871;50.144;8.428;2022-09-17T05:51:22;16.83;;;7.07;;
21420;SDS011;10871;50.144;8.428;2022-09-17T05:53:49;13.90;;;6.35;;
21420;SDS011;10871;50.144;8.428;2022-09-17T05:56:15;13.95;;;6.78;;
21420;SDS011;10871;50.144;8.428;2022-09-17T05:58:41;16.50;;;6.95;;
21420;SDS011;10871;50.144;8.428;2022-09-17T06:01:08;19.35;;;6.88;;
21420;SDS011;10871;50.144;8.428;2022-09-17T06:03:41;15.52;;;7.13;;
21420;SDS011;10871;50.144;8.428;2022-09-17T06:06:07;16.70;;;6.80;;
21420;SDS011;10871;50.144;8.428;2022-09-17T06:08:33;12.18;;;6.25;;
21420;SDS011;10871;50.144;8.428;2022-09-17T06:11:03;17.40;;;6.85;;
21420;SDS011;10871;50.144;8.428;2022-09-17T06:13:31;12.20;;;5.85;;
21420;SDS011;10871;50.144;8.428;2022-09-17T06:15:57;10.57;;;5.78;;
21420;SDS011;10871;50.144;8.428;2022-09-17T06:18:24;14.13;;;6.50;;
21420;SDS011;10871;50.144;8.428;2022-09-17T06:23:20;15.23;;;5.80;;
21420;SDS011;10871;50.144;8.428;2022-09-17T06:25:50;16.95;;;5.78;;
21420;SDS011;10871;50.144;8.428;2022-09-17T06:28:17;15.30;;;5.72;;
21420;SDS011;10871;50.144;8.428;2022-09-17T06:30:44;16.05;;;5.78;;
21420;SDS011;10871;50.144;8.428;2022-09-17T06:33:10;12.95;;;5.40;;
21420;SDS011;10871;50.144;8.428;2022-09-17T06:35:36;14.68;;;6.00;;
21420;SDS011;10871;50.144;8.428;2022-09-17T06:38:03;16.67;;;5.70;;
21420;SDS011;10871;50.144;8.428;2022-09-17T06:40:29;15.25;;;6.03;;
21420;SDS011;10871;50.144;8.428;2022-09-17T06:42:56;13.48;;;5.55;;
21420;SDS011;10871;50.144;8.428;2022-09-17T06:45:25;9.15;;;4.93;;
21420;SDS011;10871;50.144;8.428;2022-09-17T06:47:52;13.73;;;5.68;;
21420;SDS011;10871;50.144;8.428;2022-09-17T06:50:18;11.65;;;5.18;;
21420;SDS011;10871;50.144;8.428;2022-09-17T06:52:48;11.23;;;4.97;;
21420;SDS011;10871;50.144;8.428;2022-09-17T06:55:14;13.35;;;5.53;;
21420;SDS011;10871;50.144;8.428;2022-09-17T06:57:41;14.45;;;4.63;;
21420;SDS011;10871;50.144;8.428;2022-09-17T07:00:08;11.63;;;4.93;;
21420;SDS011;10871;50.144;8.428;2022-09-17T07:02:34;12.35;;;5.70;;
21420;SDS011;10871;50.144;8.428;2022-09-17T07:05:01;13.32;;;5.53;;
21420;SDS011;10871;50.144;8.428;2022-09-17T07:07:27;17.98;;;6.25;;
21420;SDS011;10871;50.144;8.428;2022-09-17T07:09:54;11.65;;;4.75;;
21420;SDS011;10871;50.144;8.428;2022-09-17T07:12:20;16.10;;;5.43;;
21420;SDS011;10871;50.144;8.428;2022-09-17T07:14:47;16.90;;;5.70;;
21420;SDS011;10871;50.144;8.428;2022-09-17T07:17:13;11.82;;;4.93;;
21420;SDS011;10871;50.144;8.428;2022-09-17T07:19:39;11.05;;;4.00;;
21420;SDS011;10871;50.144;8.428;2022-09-17T07:22:06;12.13;;;4.05;;
21420;SDS011;10871;50.144;8.428;2022-09-17T07:24:33;6.95;;;3.53;;
21420;SDS011;10871;50.144;8.428;2022-09-17T07:26:59;15.13;;;3.70;;
21420;SDS011;10871;50.144;8.428;2022-09-17T07:29:26;14.02;;;4.30;;
21420;SDS011;10871;50.144;8.428;2022-09-17T07:31:52;12.15;;;4.32;;
21420;SDS011;10871;50.144;8.428;2022-09-17T07:34:19;14.85;;;4.28;;
21420;SDS011;10871;50.144;8.428;2022-09-17T07:36:45;14.80;;;4.40;;
21420;SDS011;10871;50.144;8.428;2022-09-17T07:39:12;12.25;;;4.43;;
21420;SDS011;10871;50.144;8.428;2022-09-17T07:41:39;8.15;;;3.78;;
21420;SDS011;10871;50.144;8.428;2022-09-17T07:44:05;10.23;;;4.00;;
21420;SDS011;10871;50.144;8.428;2022-09-17T07:46:35;11.60;;;4.20;;
21420;SDS011;10871;50.144;8.428;2022-09-17T07:49:01;10.40;;;4.03;;
21420;SDS011;10871;50.144;8.428;2022-09-17T07:51:27;11.48;;;4.50;;
21420;SDS011;10871;50.144;8.428;2022-09-17T07:53:54;8.52;;;3.60;;
21420;SDS011;10871;50.144;8.428;2022-09-17T07:56:21;10.25;;;4.50;;
21420;SDS011;10871;50.144;8.428;2022-09-17T07:58:47;10.50;;;5.00;;
21420;SDS011;10871;50.144;8.428;2022-09-17T08:01:14;9.32;;;3.90;;
21420;SDS011;10871;50.144;8.428;2022-09-17T08:03:42;8.32;;;3.35;;
21420;SDS011;10871;50.144;8.428;2022-09-17T08:06:09;9.88;;;3.28;;
21420;SDS011;10871;50.144;8.428;2022-09-17T08:08:36;6.50;;;3.05;;
21420;SDS011;10871;50.144;8.428;2022-09-17T08:11:04;10.13;;;2.95;;
21420;SDS011;10871;50.144;8.428;2022-09-17T08:13:31;6.13;;;2.33;;
21420;SDS011;10871;50.144;8.428;2022-09-17T08:15:58;6.35;;;2.67;;
21420;SDS011;10871;50.144;8.428;2022-09-17T08:18:25;9.52;;;2.95;;
21420;SDS011;10871;50.144;8.428;2022-09-17T08:20:55;8.05;;;2.92;;
21420;SDS011;10871;50.144;8.428;2022-09-17T08:23:21;6.75;;;2.20;;
21420;SDS011;10871;50.144;8.428;2022-09-17T08:25:54;7.40;;;2.40;;
21420;SDS011;10871;50.144;8.428;2022-09-17T08:28:24;8.20;;;2.75;;
21420;SDS011;10871;50.144;8.428;2022-09-17T08:30:51;7.63;;;2.40;;
21420;SDS011;10871;50.144;8.428;2022-09-17T08:33:18;6.93;;;2.58;;
21420;SDS011;10871;50.144;8.428;2022-09-17T08:35:53;6.88;;;2.58;;
21420;SDS011;10871;50.144;8.428;2022-09-17T08:38:28;6.13;;;2.67;;
21420;SDS011;10871;50.144;8.428;2022-09-17T08:43:25;5.22;;;2.75;;
21420;SDS011;10871;50.144;8.428;2022-09-17T08:45:55;9.90;;;2.97;;
21420;SDS011;10871;50.144;8.428;2022-09-17T08:48:24;5.28;;;2.50;;
21420;SDS011;10871;50.144;8.428;2022-09-17T08:50:53;7.18;;;2.75;;
21420;SDS011;10871;50.144;8.428;2022-09-17T08:53:33;6.60;;;2.88;;
21420;SDS011;10871;50.144;8.428;2022-09-17T08:56:13;5.60;;;2.30;;
21420;SDS011;10871;50.144;8.428;2022-09-17T09:01:31;4.95;;;1.90;;
21420;SDS011;10871;50.144;8.428;2022-09-17T09:06:30;4.68;;;2.15;;
21420;SDS011;10871;50.144;8.428;2022-09-17T09:09:09;6.25;;;2.38;;
21420;SDS011;10871;50.144;8.428;2022-09-17T09:11:36;5.38;;;2.38;;
21420;SDS011;10871;50.144;8.428;2022-09-17T09:14:15;6.13;;;2.22;;
21420;SDS011;10871;50.144;8.428;2022-09-17T09:16:43;6.55;;;2.10;;
21420;SDS011;10871;50.144;8.428;2022-09-17T09:19:24;5.60;;;2.30;;
21420;SDS011;10871;50.144;8.428;2022-09-17T09:22:05;4.65;;;1.70;;
21420;SDS011;10871;50.144;8.428;2022-09-17T09:24:39;5.00;;;2.45;;
21420;SDS011;10871;50.144;8.428;2022-09-17T09:35:12;6.97;;;2.47;;
21420;SDS011;10871;50.144;8.428;2022-09-17T09:37:41;7.05;;;1.83;;
21420;SDS011;10871;50.144;8.428;2022-09-17T09:40:29;4.72;;;1.88;;
21420;SDS011;10871;50.144;8.428;2022-09-17T09:42:59;2.63;;;1.38;;
21420;SDS011;10871;50.144;8.428;2022-09-17T09:48:26;4.32;;;1.25;;
21420;SDS011;10871;50.144;8.428;2022-09-17T09:53:52;5.30;;;1.30;;
21420;SDS011;10871;50.144;8.428;2022-09-17T09:56:31;2.47;;;1.35;;
21420;SDS011;10871;50.144;8.428;2022-09-17T09:59:00;5.57;;;1.83;;
21420;SDS011;10871;50.144;8.428;2022-09-17T10:01:28;5.57;;;1.80;;
21420;SDS011;10871;50.144;8.428;2022-09-17T10:03:56;7.80;;;2.33;;
21420;SDS011;10871;50.144;8.428;2022-09-17T10:06:24;5.65;;;1.83;;
21420;SDS011;10871;50.144;8.428;2022-09-17T10:11:20;6.68;;;2.20;;
21420;SDS011;10871;50.144;8.428;2022-09-17T10:13:47;7.35;;;2.10;;
21420;SDS011;10871;50.144;8.428;2022-09-17T10:16:15;7.15;;;2.15;;
21420;SDS011;10871;50.144;8.428;2022-09-17T10:18:43;7.13;;;1.70;;
21420;SDS011;10871;50.144;8.428;2022-09-17T10:23:55;8.98;;;1.60;;
21420;SDS011;10871;50.144;8.428;2022-09-17T10:26:22;6.55;;;1.60;;
21420;SDS011;10871;50.144;8.428;2022-09-17T10:28:50;7.82;;;1.75;;
21420;SDS011;10871;50.144;8.428;2022-09-17T10:31:16;9.55;;;1.65;;
21420;SDS011;10871;50.144;8.428;2022-09-17T10:33:51;9.27;;;2.00;;
21420;SDS011;10871;50.144;8.428;2022-09-17T10:36:33;6.10;;;1.60;;
21420;SDS011;10871;50.144;8.428;2022-09-17T10:44:21;7.28;;;1.73;;
21420;SDS011;10871;50.144;8.428;2022-09-17T10:46:48;4.85;;;1.60;;
21420;SDS011;10871;50.144;8.428;2022-09-17T10:51:48;6.25;;;1.70;;
21420;SDS011;10871;50.144;8.428;2022-09-17T10:54:27;9.38;;;2.17;;
21420;SDS011;10871;50.144;8.428;2022-09-17T10:56:59;4.63;;;1.60;;
21420;SDS011;10871;50.144;8.428;2022-09-17T10:59:38;3.92;;;1.30;;
21420;SDS011;10871;50.144;8.428;2022-09-17T11:02:12;5.43;;;1.60;;
21420;SDS011;10871;50.144;8.428;2022-09-17T11:10:02;4.78;;;1.40;;
21420;SDS011;10871;50.144;8.428;2022-09-17T11:17:34;4.63;;;1.38;;
21420;SDS011;10871;50.144;8.428;2022-09-17T11:20:10;5.00;;;1.30;;
21420;SDS011;10871;50.144;8.428;2022-09-17T11:35:08;4.68;;;1.15;;
21420;SDS011;10871;50.144;8.428;2022-09-17T11:37:40;5.60;;;1.35;;
21420;SDS011;10871;50.144;8.428;2022-09-17T11:40:12;4.70;;;1.27;;
21420;SDS011;10871;50.144;8.428;2022-09-17T11:42:42;5.30;;;1.42;;
21420;SDS011;10871;50.144;8.428;2022-09-17T11:45:21;4.20;;;1.27;;
21420;SDS011;10871;50.144;8.428;2022-09-17T11:50:33;2.90;;;1.20;;
21420;SDS011;10871;50.144;8.428;2022-09-17T11:57:58;5.03;;;1.33;;
21420;SDS011;10871;50.144;8.428;2022-09-17T12:00:25;3.75;;;1.10;;
21420;SDS011;10871;50.144;8.428;2022-09-17T12:13:26;3.85;;;1.02;;
21420;SDS011;10871;50.144;8.428;2022-09-17T12:15:56;3.05;;;1.20;;
21420;SDS011;10871;50.144;8.428;2022-09-17T12:20:58;3.60;;;0.90;;
21420;SDS011;10871;50.144;8.428;2022-09-17T12:23:36;2.95;;;0.80;;
21420;SDS011;10871;50.144;8.428;2022-09-17T12:26:07;5.25;;;1.20;;
21420;SDS011;10871;50.144;8.428;2022-09-17T12:31:29;6.07;;;1.40;;
21420;SDS011;10871;50.144;8.428;2022-09-17T12:34:00;2.92;;;1.15;;
21420;SDS011;10871;50.144;8.428;2022-09-17T12:36:32;5.22;;;1.00;;
21420;SDS011;10871;50.144;8.428;2022-09-17T12:39:08;3.10;;;1.00;;
21420;SDS011;10871;50.144;8.428;2022-09-17T12:41:52;3.78;;;0.90;;
21420;SDS011;10871;50.144;8.428;2022-09-17T12:52:02;3.80;;;1.10;;
21420;SDS011;10871;50.144;8.428;2022-09-17T12:57:06;3.00;;;0.90;;
21420;SDS011;10871;50.144;8.428;2022-09-17T12:59:35;2.63;;;1.02;;
21420;SDS011;10871;50.144;8.428;2022-09-17T13:02:21;2.53;;;0.88;;
21420;SDS011;10871;50.144;8.428;2022-09-17T13:05:07;3.15;;;1.10;;
21420;SDS011;10871;50.144;8.428;2022-09-17T13:13:04;4.82;;;1.00;;
21420;SDS011;10871;50.144;8.428;2022-09-17T13:15:34;3.45;;;1.02;;
21420;SDS011;10871;50.144;8.428;2022-09-17T13:18:06;3.55;;;0.90;;
21420;SDS011;10871;50.144;8.428;2022-09-17T13:23:32;3.58;;;0.80;;
21420;SDS011;10871;50.144;8.428;2022-09-17T13:26:00;3.53;;;0.90;;
21420;SDS011;10871;50.144;8.428;2022-09-17T13:28:37;2.70;;;0.90;;
21420;SDS011;10871;50.144;8.428;2022-09-17T13:31:09;4.63;;;0.80;;
21420;SDS011;10871;50.144;8.428;2022-09-17T13:33:49;2.20;;;0.77;;
21420;SDS011;10871;50.144;8.428;2022-09-17T13:38:58;3.28;;;0.93;;
21420;SDS011;10871;50.144;8.428;2022-09-17T13:41:25;2.95;;;0.88;;
21420;SDS011;10871;50.144;8.428;2022-09-17T13:43:51;4.07;;;0.80;;
21420;SDS011;10871;50.144;8.428;2022-09-17T13:46:21;1.73;;;0.80;;
21420;SDS011;10871;50.144;8.428;2022-09-17T13:48:50;2.67;;;0.82;;
21420;SDS011;10871;50.144;8.428;2022-09-17T13:53:56;1.98;;;0.88;;
21420;SDS011;10871;50.144;8.428;2022-09-17T13:56:30;3.22;;;0.90;;
21420;SDS011;10871;50.144;8.428;2022-09-17T13:59:07;4.85;;;2.95;;
21420;SDS011;10871;50.144;8.428;2022-09-17T14:09:51;3.10;;;1.00;;
21420;SDS011;10871;50.144;8.428;2022-09-17T14:15:08;2.00;;;0.85;;
21420;SDS011;10871;50.144;8.428;2022-09-17T14:17:50;2.78;;;0.75;;
21420;SDS011;10871;50.144;8.428;2022-09-17T14:20:20;3.05;;;0.75;;
21420;SDS011;10871;50.144;8.428;2022-09-17T14:22:58;1.77;;;1.00;;
21420;SDS011;10871;50.144;8.428;2022-09-17T14:25:31;3.70;;;1.00;;
21420;SDS011;10871;50.144;8.428;2022-09-17T14:28:00;3.55;;;0.98;;
21420;SDS011;10871;50.144;8.428;2022-09-17T14:30:30;3.20;;;0.77;;
21420;SDS011;10871;50.144;8.428;2022-09-17T14:37:53;2.92;;;0.93;;
21420;SDS011;10871;50.144;8.428;2022-09-17T14:40:21;2.08;;;0.90;;
21420;SDS011;10871;50.144;8.428;2022-09-17T14:42:50;3.78;;;1.20;;
21420;SDS011;10871;50.144;8.428;2022-09-17T14:45:25;4.25;;;1.40;;
21420;SDS011;10871;50.144;8.428;2022-09-17T14:50:38;3.63;;;0.88;;
21420;SDS011;10871;50.144;8.428;2022-09-17T14:53:06;2.95;;;1.00;;
21420;SDS011;10871;50.144;8.428;2022-09-17T14:55:33;3.30;;;0.98;;
21420;SDS011;10871;50.144;8.428;2022-09-17T14:57:59;3.08;;;1.05;;
21420;SDS011;10871;50.144;8.428;2022-09-17T15:00:32;4.60;;;1.10;;
21420;SDS011;10871;50.144;8.428;2022-09-17T15:02:59;4.75;;;1.33;;
21420;SDS011;10871;50.144;8.428;2022-09-17T15:05:27;3.13;;;1.10;;
21420;SDS011;10871;50.144;8.428;2022-09-17T15:10:30;3.13;;;1.08;;
21420;SDS011;10871;50.144;8.428;2022-09-17T15:12:57;5.80;;;1.00;;
21420;SDS011;10871;50.144;8.428;2022-09-17T15:15:24;4.55;;;1.08;;
21420;SDS011;10871;50.144;8.428;2022-09-17T15:17:51;2.85;;;1.50;;
21420;SDS011;10871;50.144;8.428;2022-09-17T15:20:19;3.15;;;1.00;;
21420;SDS011;10871;50.144;8.428;2022-09-17T15:23:00;3.08;;;1.00;;
21420;SDS011;10871;50.144;8.428;2022-09-17T15:25:28;3.53;;;1.00;;
21420;SDS011;10871;50.144;8.428;2022-09-17T15:27:55;3.65;;;1.17;;
21420;SDS011;10871;50.144;8.428;2022-09-17T15:30:23;4.03;;;1.30;;
21420;SDS011;10871;50.144;8.428;2022-09-17T15:35:23;4.40;;;1.30;;
21420;SDS011;10871;50.144;8.428;2022-09-17T15:37:54;2.17;;;1.00;;
21420;SDS011;10871;50.144;8.428;2022-09-17T15:40:40;2.13;;;0.98;;
21420;SDS011;10871;50.144;8.428;2022-09-17T15:43:26;4.20;;;1.10;;
21420;SDS011;10871;50.144;8.428;2022-09-17T15:45:53;3.38;;;1.00;;
21420;SDS011;10871;50.144;8.428;2022-09-17T15:50:59;1.98;;;1.00;;
21420;SDS011;10871;50.144;8.428;2022-09-17T15:53:26;1.52;;;0.85;;
21420;SDS011;10871;50.144;8.428;2022-09-17T15:58:35;3.13;;;0.70;;
21420;SDS011;10871;50.144;8.428;2022-09-17T16:08:44;1.65;;;1.00;;
21420;SDS011;10871;50.144;8.428;2022-09-17T16:11:14;2.20;;;1.00;;
21420;SDS011;10871;50.144;8.428;2022-09-17T16:13:40;1.17;;;0.95;;
21420;SDS011;10871;50.144;8.428;2022-09-17T16:16:08;2.25;;;0.90;;
21420;SDS011;10871;50.144;8.428;2022-09-17T16:18:39;1.75;;;0.60;;
21420;SDS011;10871;50.144;8.428;2022-09-17T16:21:06;3.95;;;1.35;;
21420;SDS011;10871;50.144;8.428;2022-09-17T16:23:32;1.73;;;0.80;;
21420;SDS011;10871;50.144;8.428;2022-09-17T16:25:59;1.05;;;0.70;;
21420;SDS011;10871;50.144;8.428;2022-09-17T16:28:25;2.53;;;0.85;;
21420;SDS011;10871;50.144;8.428;2022-09-17T16:30:51;1.77;;;0.80;;
21420;SDS011;10871;50.144;8.428;2022-09-17T16:33:18;3.38;;;1.00;;
21420;SDS011;10871;50.144;8.428;2022-09-17T16:35:45;2.25;;;0.80;;
21420;SDS011;10871;50.144;8.428;2022-09-17T16:38:11;4.63;;;0.95;;
21420;SDS011;10871;50.144;8.428;2022-09-17T16:40:39;4.68;;;1.15;;
21420;SDS011;10871;50.144;8.428;2022-09-17T16:43:05;2.13;;;0.90;;
21420;SDS011;10871;50.144;8.428;2022-09-17T16:45:33;4.72;;;1.00;;
21420;SDS011;10871;50.144;8.428;2022-09-17T16:48:00;3.67;;;1.27;;
21420;SDS011;10871;50.144;8.428;2022-09-17T16:50:27;1.63;;;1.20;;
21420;SDS011;10871;50.144;8.428;2022-09-17T16:52:53;3.00;;;1.20;;
21420;SDS011;10871;50.144;8.428;2022-09-17T16:55:20;3.55;;;1.40;;
21420;SDS011;10871;50.144;8.428;2022-09-17T16:57:47;2.58;;;1.10;;
21420;SDS011;10871;50.144;8.428;2022-09-17T17:00:14;3.95;;;1.20;;
21420;SDS011;10871;50.144;8.428;2022-09-17T17:02:42;1.80;;;0.77;;
21420;SDS011;10871;50.144;8.428;2022-09-17T17:05:09;2.70;;;0.80;;
21420;SDS011;10871;50.144;8.428;2022-09-17T17:07:38;3.00;;;1.15;;
21420;SDS011;10871;50.144;8.428;2022-09-17T17:10:04;3.70;;;1.15;;
21420;SDS011;10871;50.144;8.428;2022-09-17T17:12:34;1.02;;;0.70;;
21420;SDS011;10871;50.144;8.428;2022-09-17T17:15:01;2.05;;;0.90;;
21420;SDS011;10871;50.144;8.428;2022-09-17T17:17:31;3.33;;;1.10;;
21420;SDS011;10871;50.144;8.428;2022-09-17T17:19:58;1.30;;;1.00;;
21420;SDS011;10871;50.144;8.428;2022-09-17T17:22:24;2.15;;;0.70;;
21420;SDS011;10871;50.144;8.428;2022-09-17T17:24:51;4.70;;;1.17;;
21420;SDS011;10871;50.144;8.428;2022-09-17T17:27:17;5.97;;;1.58;;
21420;SDS011;10871;50.144;8.428;2022-09-17T17:29:43;5.78;;;1.92;;
21420;SDS011;10871;50.144;8.428;2022-09-17T17:32:10;6.50;;;1.55;;
21420;SDS011;10871;50.144;8.428;2022-09-17T17:34:36;6.85;;;2.45;;
21420;SDS011;10871;50.144;8.428;2022-09-17T17:37:02;4.20;;;2.30;;
21420;SDS011;10871;50.144;8.428;2022-09-17T17:39:29;7.68;;;3.38;;
21420;SDS011;10871;50.144;8.428;2022-09-17T17:41:56;3.97;;;1.38;;
21420;SDS011;10871;50.144;8.428;2022-09-17T17:44:22;4.25;;;1.60;;
21420;SDS011;10871;50.144;8.428;2022-09-17T17:46:48;2.38;;;1.23;;
21420;SDS011;10871;50.144;8.428;2022-09-17T17:49:15;2.60;;;1.20;;
21420;SDS011;10871;50.144;8.428;2022-09-17T17:51:41;2.80;;;1.20;;